sensor_id;sensor_type;location;lat;lon;timestamp;temperature;humidity
18291;DHT22;9271;48.590;8.866;2023-08-06T00:00:38;16.30;99.90
18291;DHT22;9271;48.590;8.866;2023-08-06T00:03:05;16.20;99.90
18291;DHT22;9271;48.590;8.866;2023-08-06T00:05:31;16.20;99.90
18291;DHT22;9271;48.590;8.866;2023-08-06T00:07:58;16.20;99.90
18291;DHT22;9271;48.590;8.866;2023-08-06T00:10:26;15.70;99.90
18291;DHT22;9271;48.590;8.866;2023-08-06T00:12:53;15.70;99.90
18291;DHT22;9271;48.590;8.866;2023-08-06T00:15:19;15.60;99.90
18291;DHT22;9271;48.590;8.866;2023-08-06T00:17:46;15.60;99.90
18291;DHT22;9271;48.590;8.866;2023-08-06T00:20:13;15.50;99.90
18291;DHT22;9271;48.590;8.866;2023-08-06T00:22:39;15.40;99.90
18291;DHT22;9271;48.590;8.866;2023-08-06T00:25:06;15.60;99.90
18291;DHT22;9271;48.590;8.866;2023-08-06T00:27:35;15.80;99.90
18291;DHT22;9271;48.590;8.866;2023-08-06T00:30:01;15.80;99.90
18291;DHT22;9271;48.590;8.866;2023-08-06T00:32:28;15.80;99.90
18291;DHT22;9271;48.590;8.866;2023-08-06T00:34:55;15.90;99.90
18291;DHT22;9271;48.590;8.866;2023-08-06T00:37:22;15.90;99.90
18291;DHT22;9271;48.590;8.866;2023-08-06T00:39:48;15.80;99.90
18291;DHT22;9271;48.590;8.866;2023-08-06T00:42:15;15.70;99.90
18291;DHT22;9271;48.590;8.866;2023-08-06T00:44:47;15.80;99.90
18291;DHT22;9271;48.590;8.866;2023-08-06T00:47:14;15.80;99.90
18291;DHT22;9271;48.590;8.866;2023-08-06T00:49:40;15.90;99.90
18291;DHT22;9271;48.590;8.866;2023-08-06T00:52:08;15.80;99.90
18291;DHT22;9271;48.590;8.866;2023-08-06T00:54:35;15.90;99.90
18291;DHT22;9271;48.590;8.866;2023-08-06T00:57:02;16.00;99.90
18291;DHT22;9271;48.590;8.866;2023-08-06T00:59:31;15.80;99.90
18291;DHT22;9271;48.590;8.866;2023-08-06T01:01:59;15.70;99.90
18291;DHT22;9271;48.590;8.866;2023-08-06T01:04:26;15.60;99.90
18291;DHT22;9271;48.590;8.866;2023-08-06T01:07:04;15.60;99.90
18291;DHT22;9271;48.590;8.866;2023-08-06T01:09:43;15.70;99.90
18291;DHT22;9271;48.590;8.866;2023-08-06T01:12:21;15.20;99.90
18291;DHT22;9271;48.590;8.866;2023-08-06T01:14:57;15.00;99.90
18291;DHT22;9271;48.590;8.866;2023-08-06T01:17:27;14.90;99.90
18291;DHT22;9271;48.590;8.866;2023-08-06T01:19:54;14.90;99.90
18291;DHT22;9271;48.590;8.866;2023-08-06T01:22:22;14.90;99.90
18291;DHT22;9271;48.590;8.866;2023-08-06T01:24:50;15.20;99.90
18291;DHT22;9271;48.590;8.866;2023-08-06T01:27:24;15.20;99.90
18291;DHT22;9271;48.590;8.866;2023-08-06T01:29:57;15.30;99.90
18291;DHT22;9271;48.590;8.866;2023-08-06T01:32:27;15.40;99.90
18291;DHT22;9271;48.590;8.866;2023-08-06T01:34:56;15.30;99.90
18291;DHT22;9271;48.590;8.866;2023-08-06T01:37:27;15.20;99.90
18291;DHT22;9271;48.590;8.866;2023-08-06T01:39:54;15.20;99.90
18291;DHT22;9271;48.590;8.866;2023-08-06T01:42:21;15.10;99.90
18291;DHT22;9271;48.590;8.866;2023-08-06T01:44:48;15.20;99.90
18291;DHT22;9271;48.590;8.866;2023-08-06T01:47:14;15.20;99.90
18291;DHT22;9271;48.590;8.866;2023-08-06T01:49:41;15.10;99.90
18291;DHT22;9271;48.590;8.866;2023-08-06T01:52:08;15.00;99.90
18291;DHT22;9271;48.590;8.866;2023-08-06T01:54:36;15.00;99.90
18291;DHT22;9271;48.590;8.866;2023-08-06T01:57:03;15.00;99.90
18291;DHT22;9271;48.590;8.866;2023-08-06T01:59:29;14.90;99.90
18291;DHT22;9271;48.590;8.866;2023-08-06T02:01:56;15.10;99.90
18291;DHT22;9271;48.590;8.866;2023-08-06T02:04:23;15.00;99.90
18291;DHT22;9271;48.590;8.866;2023-08-06T02:06:49;15.00;99.90
18291;DHT22;9271;48.590;8.866;2023-08-06T02:09:16;15.00;99.90
18291;DHT22;9271;48.590;8.866;2023-08-06T02:11:44;14.90;99.90
18291;DHT22;9271;48.590;8.866;2023-08-06T02:14:10;14.50;99.90
18291;DHT22;9271;48.590;8.866;2023-08-06T02:16:37;14.50;99.90
18291;DHT22;9271;48.590;8.866;2023-08-06T02:19:04;14.50;99.90
18291;DHT22;9271;48.590;8.866;2023-08-06T02:21:30;14.70;99.90
18291;DHT22;9271;48.590;8.866;2023-08-06T02:23:57;14.90;99.90
18291;DHT22;9271;48.590;8.866;2023-08-06T02:26:24;15.10;99.90
18291;DHT22;9271;48.590;8.866;2023-08-06T02:28:52;15.30;99.90
18291;DHT22;9271;48.590;8.866;2023-08-06T02:31:18;15.30;99.90
18291;DHT22;9271;48.590;8.866;2023-08-06T02:33:45;15.40;99.90
18291;DHT22;9271;48.590;8.866;2023-08-06T02:36:11;15.50;99.90
18291;DHT22;9271;48.590;8.866;2023-08-06T02:38:38;15.50;99.90
18291;DHT22;9271;48.590;8.866;2023-08-06T02:41:05;15.30;99.90
18291;DHT22;9271;48.590;8.866;2023-08-06T02:43:32;15.30;99.90
18291;DHT22;9271;48.590;8.866;2023-08-06T02:46:00;15.20;99.90
18291;DHT22;9271;48.590;8.866;2023-08-06T02:48:27;15.10;99.90
18291;DHT22;9271;48.590;8.866;2023-08-06T02:50:57;15.20;99.90
18291;DHT22;9271;48.590;8.866;2023-08-06T02:53:24;15.20;99.90
18291;DHT22;9271;48.590;8.866;2023-08-06T02:55:50;15.20;99.90
18291;DHT22;9271;48.590;8.866;2023-08-06T02:58:17;15.30;99.90
18291;DHT22;9271;48.590;8.866;2023-08-06T03:01:00;15.30;99.90
18291;DHT22;9271;48.590;8.866;2023-08-06T03:03:28;15.40;99.90
18291;DHT22;9271;48.590;8.866;2023-08-06T03:05:55;15.50;99.90
18291;DHT22;9271;48.590;8.866;2023-08-06T03:08:21;15.50;99.90
18291;DHT22;9271;48.590;8.866;2023-08-06T03:10:48;15.60;99.90
18291;DHT22;9271;48.590;8.866;2023-08-06T03:13:14;15.80;99.90
18291;DHT22;9271;48.590;8.866;2023-08-06T03:15:41;15.90;99.90
18291;DHT22;9271;48.590;8.866;2023-08-06T03:18:09;15.90;99.90
18291;DHT22;9271;48.590;8.866;2023-08-06T03:20:36;15.90;99.90
18291;DHT22;9271;48.590;8.866;2023-08-06T03:23:02;15.90;99.90
18291;DHT22;9271;48.590;8.866;2023-08-06T03:25:29;15.90;99.90
18291;DHT22;9271;48.590;8.866;2023-08-06T03:27:56;15.80;99.90
18291;DHT22;9271;48.590;8.866;2023-08-06T03:30:22;15.80;99.90
18291;DHT22;9271;48.590;8.866;2023-08-06T03:32:49;15.80;99.90
18291;DHT22;9271;48.590;8.866;2023-08-06T03:35:17;15.70;99.90
18291;DHT22;9271;48.590;8.866;2023-08-06T03:37:43;15.60;99.90
18291;DHT22;9271;48.590;8.866;2023-08-06T03:40:10;15.40;99.90
18291;DHT22;9271;48.590;8.866;2023-08-06T03:42:37;15.30;99.90
18291;DHT22;9271;48.590;8.866;2023-08-06T03:45:05;15.30;99.90
18291;DHT22;9271;48.590;8.866;2023-08-06T03:47:31;15.40;99.90
18291;DHT22;9271;48.590;8.866;2023-08-06T03:49:58;15.50;99.90
18291;DHT22;9271;48.590;8.866;2023-08-06T03:52:26;15.50;99.90
18291;DHT22;9271;48.590;8.866;2023-08-06T03:54:53;15.60;99.90
18291;DHT22;9271;48.590;8.866;2023-08-06T03:57:19;15.60;99.90
18291;DHT22;9271;48.590;8.866;2023-08-06T03:59:46;15.70;99.90
18291;DHT22;9271;48.590;8.866;2023-08-06T04:02:13;15.70;99.90
18291;DHT22;9271;48.590;8.866;2023-08-06T04:04:39;15.70;99.90
18291;DHT22;9271;48.590;8.866;2023-08-06T04:07:06;15.60;99.90
18291;DHT22;9271;48.590;8.866;2023-08-06T04:09:34;15.70;99.90
18291;DHT22;9271;48.590;8.866;2023-08-06T04:12:17;15.70;99.90
18291;DHT22;9271;48.590;8.866;2023-08-06T04:14:43;15.90;99.90
18291;DHT22;9271;48.590;8.866;2023-08-06T04:17:10;15.90;99.90
18291;DHT22;9271;48.590;8.866;2023-08-06T04:19:37;15.60;99.90
18291;DHT22;9271;48.590;8.866;2023-08-06T04:22:04;15.60;99.90
18291;DHT22;9271;48.590;8.866;2023-08-06T04:24:30;15.50;99.90
18291;DHT22;9271;48.590;8.866;2023-08-06T04:26:58;15.00;99.90
18291;DHT22;9271;48.590;8.866;2023-08-06T04:29:25;14.80;99.90
18291;DHT22;9271;48.590;8.866;2023-08-06T04:31:51;14.60;99.90
18291;DHT22;9271;48.590;8.866;2023-08-06T04:34:18;14.50;99.90
18291;DHT22;9271;48.590;8.866;2023-08-06T04:36:45;14.60;99.90
18291;DHT22;9271;48.590;8.866;2023-08-06T04:39:11;14.70;99.90
18291;DHT22;9271;48.590;8.866;2023-08-06T04:41:38;14.70;99.90
18291;DHT22;9271;48.590;8.866;2023-08-06T04:44:06;15.00;99.90
18291;DHT22;9271;48.590;8.866;2023-08-06T04:46:32;15.00;99.90
18291;DHT22;9271;48.590;8.866;2023-08-06T04:48:59;14.50;99.90
18291;DHT22;9271;48.590;8.866;2023-08-06T04:51:26;14.40;99.90
18291;DHT22;9271;48.590;8.866;2023-08-06T04:53:52;14.30;99.90
18291;DHT22;9271;48.590;8.866;2023-08-06T04:56:19;14.40;99.90
18291;DHT22;9271;48.590;8.866;2023-08-06T04:58:46;14.60;99.90
18291;DHT22;9271;48.590;8.866;2023-08-06T05:01:14;14.80;99.90
18291;DHT22;9271;48.590;8.866;2023-08-06T05:03:40;14.90;99.90
18291;DHT22;9271;48.590;8.866;2023-08-06T05:06:07;15.20;99.90
18291;DHT22;9271;48.590;8.866;2023-08-06T05:08:34;15.10;99.90
18291;DHT22;9271;48.590;8.866;2023-08-06T05:11:00;15.40;99.90
18291;DHT22;9271;48.590;8.866;2023-08-06T05:13:27;15.60;99.90
18291;DHT22;9271;48.590;8.866;2023-08-06T05:15:54;16.00;99.90
18291;DHT22;9271;48.590;8.866;2023-08-06T05:18:22;16.30;99.90
18291;DHT22;9271;48.590;8.866;2023-08-06T05:20:49;16.70;99.90
18291;DHT22;9271;48.590;8.866;2023-08-06T05:23:16;16.60;99.90
18291;DHT22;9271;48.590;8.866;2023-08-06T05:25:42;16.80;99.90
18291;DHT22;9271;48.590;8.866;2023-08-06T05:28:09;17.00;99.90
18291;DHT22;9271;48.590;8.866;2023-08-06T05:30:39;16.80;99.90
18291;DHT22;9271;48.590;8.866;2023-08-06T05:33:06;16.90;99.90
18291;DHT22;9271;48.590;8.866;2023-08-06T05:35:34;16.70;99.90
18291;DHT22;9271;48.590;8.866;2023-08-06T05:38:00;16.50;99.90
18291;DHT22;9271;48.590;8.866;2023-08-06T05:40:27;16.20;99.90
18291;DHT22;9271;48.590;8.866;2023-08-06T05:42:54;16.20;99.90
18291;DHT22;9271;48.590;8.866;2023-08-06T05:45:21;16.00;99.90
18291;DHT22;9271;48.590;8.866;2023-08-06T05:47:48;16.10;99.90
18291;DHT22;9271;48.590;8.866;2023-08-06T05:50:15;16.00;99.90
18291;DHT22;9271;48.590;8.866;2023-08-06T05:52:43;15.70;99.90
18291;DHT22;9271;48.590;8.866;2023-08-06T05:55:09;15.30;99.90
18291;DHT22;9271;48.590;8.866;2023-08-06T05:57:36;15.20;99.90
18291;DHT22;9271;48.590;8.866;2023-08-06T06:00:03;15.30;99.90
18291;DHT22;9271;48.590;8.866;2023-08-06T06:02:31;15.50;99.90
18291;DHT22;9271;48.590;8.866;2023-08-06T06:04:58;15.90;99.90
18291;DHT22;9271;48.590;8.866;2023-08-06T06:07:24;15.80;99.90
18291;DHT22;9271;48.590;8.866;2023-08-06T06:09:52;15.50;99.90
18291;DHT22;9271;48.590;8.866;2023-08-06T06:12:19;15.20;99.90
18291;DHT22;9271;48.590;8.866;2023-08-06T06:14:47;15.60;99.90
18291;DHT22;9271;48.590;8.866;2023-08-06T06:17:14;15.60;99.90
18291;DHT22;9271;48.590;8.866;2023-08-06T06:19:41;15.70;99.90
18291;DHT22;9271;48.590;8.866;2023-08-06T06:22:08;15.50;99.90
18291;DHT22;9271;48.590;8.866;2023-08-06T06:24:34;15.30;99.90
18291;DHT22;9271;48.590;8.866;2023-08-06T06:27:03;15.50;99.90
18291;DHT22;9271;48.590;8.866;2023-08-06T06:29:29;15.60;99.90
18291;DHT22;9271;48.590;8.866;2023-08-06T06:31:56;15.30;99.90
18291;DHT22;9271;48.590;8.866;2023-08-06T06:34:24;15.40;99.90
18291;DHT22;9271;48.590;8.866;2023-08-06T06:36:51;15.00;99.90
18291;DHT22;9271;48.590;8.866;2023-08-06T06:39:18;15.00;99.90
18291;DHT22;9271;48.590;8.866;2023-08-06T06:41:45;15.10;99.90
18291;DHT22;9271;48.590;8.866;2023-08-06T06:44:13;15.20;99.90
18291;DHT22;9271;48.590;8.866;2023-08-06T06:46:40;15.40;99.90
18291;DHT22;9271;48.590;8.866;2023-08-06T06:49:07;15.70;99.90
18291;DHT22;9271;48.590;8.866;2023-08-06T06:51:34;15.60;99.90
18291;DHT22;9271;48.590;8.866;2023-08-06T06:54:01;15.60;99.90
18291;DHT22;9271;48.590;8.866;2023-08-06T06:56:28;15.20;99.90
18291;DHT22;9271;48.590;8.866;2023-08-06T06:58:54;15.10;99.90
18291;DHT22;9271;48.590;8.866;2023-08-06T07:01:23;15.30;99.90
18291;DHT22;9271;48.590;8.866;2023-08-06T07:03:50;15.20;99.90
18291;DHT22;9271;48.590;8.866;2023-08-06T07:06:17;15.10;99.90
18291;DHT22;9271;48.590;8.866;2023-08-06T07:08:44;15.20;99.90
18291;DHT22;9271;48.590;8.866;2023-08-06T07:11:11;15.50;99.90
18291;DHT22;9271;48.590;8.866;2023-08-06T07:13:38;15.40;99.90
18291;DHT22;9271;48.590;8.866;2023-08-06T07:16:04;15.40;99.90
18291;DHT22;9271;48.590;8.866;2023-08-06T07:18:33;15.40;99.90
18291;DHT22;9271;48.590;8.866;2023-08-06T07:20:59;15.50;99.90
18291;DHT22;9271;48.590;8.866;2023-08-06T07:23:26;15.30;99.90
18291;DHT22;9271;48.590;8.866;2023-08-06T07:25:53;15.30;99.90
18291;DHT22;9271;48.590;8.866;2023-08-06T07:28:20;15.10;99.90
18291;DHT22;9271;48.590;8.866;2023-08-06T07:30:48;15.10;99.90
18291;DHT22;9271;48.590;8.866;2023-08-06T07:33:15;15.30;99.90
18291;DHT22;9271;48.590;8.866;2023-08-06T07:35:43;15.60;99.90
18291;DHT22;9271;48.590;8.866;2023-08-06T07:38:10;15.70;99.90
18291;DHT22;9271;48.590;8.866;2023-08-06T07:40:38;15.40;99.90
18291;DHT22;9271;48.590;8.866;2023-08-06T07:43:05;15.50;99.90
18291;DHT22;9271;48.590;8.866;2023-08-06T07:45:33;15.40;99.90
18291;DHT22;9271;48.590;8.866;2023-08-06T07:48:01;15.50;99.90
18291;DHT22;9271;48.590;8.866;2023-08-06T07:50:28;15.50;99.90
18291;DHT22;9271;48.590;8.866;2023-08-06T07:52:57;15.70;99.90
18291;DHT22;9271;48.590;8.866;2023-08-06T07:55:24;15.80;99.90
18291;DHT22;9271;48.590;8.866;2023-08-06T07:57:52;15.40;99.90
18291;DHT22;9271;48.590;8.866;2023-08-06T08:00:18;15.70;99.90
18291;DHT22;9271;48.590;8.866;2023-08-06T08:02:45;15.80;99.90
18291;DHT22;9271;48.590;8.866;2023-08-06T08:05:12;15.60;99.90
18291;DHT22;9271;48.590;8.866;2023-08-06T08:07:39;15.30;99.90
18291;DHT22;9271;48.590;8.866;2023-08-06T08:10:08;15.20;99.90
18291;DHT22;9271;48.590;8.866;2023-08-06T08:12:35;15.40;99.90
18291;DHT22;9271;48.590;8.866;2023-08-06T08:15:02;15.20;99.90
18291;DHT22;9271;48.590;8.866;2023-08-06T08:17:29;15.20;99.90
18291;DHT22;9271;48.590;8.866;2023-08-06T08:19:56;15.00;99.90
18291;DHT22;9271;48.590;8.866;2023-08-06T08:22:23;15.50;99.90
18291;DHT22;9271;48.590;8.866;2023-08-06T08:24:50;15.90;99.90
18291;DHT22;9271;48.590;8.866;2023-08-06T08:27:18;15.70;99.90
18291;DHT22;9271;48.590;8.866;2023-08-06T08:29:45;15.70;99.90
18291;DHT22;9271;48.590;8.866;2023-08-06T08:32:12;15.40;99.90
18291;DHT22;9271;48.590;8.866;2023-08-06T08:34:38;15.50;99.90
18291;DHT22;9271;48.590;8.866;2023-08-06T08:37:05;15.60;99.90
18291;DHT22;9271;48.590;8.866;2023-08-06T08:39:32;15.70;99.90
18291;DHT22;9271;48.590;8.866;2023-08-06T08:41:59;15.60;99.90
18291;DHT22;9271;48.590;8.866;2023-08-06T08:44:29;15.10;99.90
18291;DHT22;9271;48.590;8.866;2023-08-06T08:46:58;15.30;99.90
18291;DHT22;9271;48.590;8.866;2023-08-06T08:49:26;15.40;99.90
18291;DHT22;9271;48.590;8.866;2023-08-06T08:51:54;15.30;99.90
18291;DHT22;9271;48.590;8.866;2023-08-06T08:54:25;15.40;99.90
18291;DHT22;9271;48.590;8.866;2023-08-06T08:56:53;15.90;99.90
18291;DHT22;9271;48.590;8.866;2023-08-06T08:59:20;15.80;99.90
18291;DHT22;9271;48.590;8.866;2023-08-06T09:01:49;15.50;99.90
18291;DHT22;9271;48.590;8.866;2023-08-06T09:04:17;15.50;99.90
18291;DHT22;9271;48.590;8.866;2023-08-06T09:06:46;16.10;99.90
18291;DHT22;9271;48.590;8.866;2023-08-06T09:09:19;16.60;99.90
18291;DHT22;9271;48.590;8.866;2023-08-06T09:11:49;16.90;99.90
18291;DHT22;9271;48.590;8.866;2023-08-06T09:14:16;16.70;99.90
18291;DHT22;9271;48.590;8.866;2023-08-06T09:16:44;16.70;99.90
18291;DHT22;9271;48.590;8.866;2023-08-06T09:19:13;16.40;99.90
18291;DHT22;9271;48.590;8.866;2023-08-06T09:21:43;16.50;99.90
18291;DHT22;9271;48.590;8.866;2023-08-06T09:24:10;16.70;99.90
18291;DHT22;9271;48.590;8.866;2023-08-06T09:26:37;16.20;99.90
18291;DHT22;9271;48.590;8.866;2023-08-06T09:29:05;15.70;99.90
18291;DHT22;9271;48.590;8.866;2023-08-06T09:31:33;15.50;99.90
18291;DHT22;9271;48.590;8.866;2023-08-06T09:34:00;15.40;99.90
18291;DHT22;9271;48.590;8.866;2023-08-06T09:36:29;15.30;99.90
18291;DHT22;9271;48.590;8.866;2023-08-06T09:38:56;15.50;99.90
18291;DHT22;9271;48.590;8.866;2023-08-06T09:41:26;15.80;99.90
18291;DHT22;9271;48.590;8.866;2023-08-06T09:43:54;15.80;99.90
18291;DHT22;9271;48.590;8.866;2023-08-06T09:46:20;15.00;99.90
18291;DHT22;9271;48.590;8.866;2023-08-06T09:48:48;15.00;99.90
18291;DHT22;9271;48.590;8.866;2023-08-06T09:51:15;14.70;99.90
18291;DHT22;9271;48.590;8.866;2023-08-06T09:53:44;14.90;99.90
18291;DHT22;9271;48.590;8.866;2023-08-06T09:56:13;15.10;99.90
18291;DHT22;9271;48.590;8.866;2023-08-06T09:58:40;14.80;99.90
18291;DHT22;9271;48.590;8.866;2023-08-06T10:01:08;15.00;99.90
18291;DHT22;9271;48.590;8.866;2023-08-06T10:03:35;15.10;99.90
18291;DHT22;9271;48.590;8.866;2023-08-06T10:06:03;15.70;99.90
18291;DHT22;9271;48.590;8.866;2023-08-06T10:08:32;15.70;99.90
18291;DHT22;9271;48.590;8.866;2023-08-06T10:11:01;16.00;99.90
18291;DHT22;9271;48.590;8.866;2023-08-06T10:13:29;16.10;99.90
18291;DHT22;9271;48.590;8.866;2023-08-06T10:15:56;16.10;99.90
18291;DHT22;9271;48.590;8.866;2023-08-06T10:18:23;15.80;99.90
18291;DHT22;9271;48.590;8.866;2023-08-06T10:20:50;15.90;99.90
18291;DHT22;9271;48.590;8.866;2023-08-06T10:23:17;16.00;99.90
18291;DHT22;9271;48.590;8.866;2023-08-06T10:25:53;16.00;99.90
18291;DHT22;9271;48.590;8.866;2023-08-06T10:28:34;15.80;99.90
18291;DHT22;9271;48.590;8.866;2023-08-06T10:31:00;15.30;99.90
18291;DHT22;9271;48.590;8.866;2023-08-06T10:33:40;15.40;99.90
18291;DHT22;9271;48.590;8.866;2023-08-06T10:36:08;15.60;99.90
18291;DHT22;9271;48.590;8.866;2023-08-06T10:38:44;15.40;99.90
18291;DHT22;9271;48.590;8.866;2023-08-06T10:41:16;15.70;99.90
18291;DHT22;9271;48.590;8.866;2023-08-06T10:43:47;15.90;99.90
18291;DHT22;9271;48.590;8.866;2023-08-06T10:46:22;15.80;99.90
18291;DHT22;9271;48.590;8.866;2023-08-06T10:48:49;15.90;99.90
18291;DHT22;9271;48.590;8.866;2023-08-06T10:51:16;15.70;99.90
18291;DHT22;9271;48.590;8.866;2023-08-06T10:53:44;15.50;99.90
18291;DHT22;9271;48.590;8.866;2023-08-06T10:56:14;15.80;99.90
18291;DHT22;9271;48.590;8.866;2023-08-06T10:58:40;15.60;99.90
18291;DHT22;9271;48.590;8.866;2023-08-06T11:01:09;15.60;99.90
18291;DHT22;9271;48.590;8.866;2023-08-06T11:03:36;15.40;99.90
18291;DHT22;9271;48.590;8.866;2023-08-06T11:06:03;15.70;99.90
18291;DHT22;9271;48.590;8.866;2023-08-06T11:08:33;16.10;99.90
18291;DHT22;9271;48.590;8.866;2023-08-06T11:11:08;16.20;99.90
18291;DHT22;9271;48.590;8.866;2023-08-06T11:13:36;16.20;99.90
18291;DHT22;9271;48.590;8.866;2023-08-06T11:16:03;15.80;99.90
18291;DHT22;9271;48.590;8.866;2023-08-06T11:18:31;15.40;99.90
18291;DHT22;9271;48.590;8.866;2023-08-06T11:20:59;15.50;99.90
18291;DHT22;9271;48.590;8.866;2023-08-06T11:23:26;15.80;99.90
18291;DHT22;9271;48.590;8.866;2023-08-06T11:25:53;15.90;99.90
18291;DHT22;9271;48.590;8.866;2023-08-06T11:28:20;16.00;99.90
18291;DHT22;9271;48.590;8.866;2023-08-06T11:30:47;16.30;99.90
18291;DHT22;9271;48.590;8.866;2023-08-06T11:33:14;16.50;99.90
18291;DHT22;9271;48.590;8.866;2023-08-06T11:35:42;16.70;99.90
18291;DHT22;9271;48.590;8.866;2023-08-06T11:38:09;17.10;99.90
18291;DHT22;9271;48.590;8.866;2023-08-06T11:40:36;16.80;99.90
18291;DHT22;9271;48.590;8.866;2023-08-06T11:43:03;17.10;99.90
18291;DHT22;9271;48.590;8.866;2023-08-06T11:45:30;17.50;99.90
18291;DHT22;9271;48.590;8.866;2023-08-06T11:47:56;17.40;99.90
18291;DHT22;9271;48.590;8.866;2023-08-06T11:50:25;17.60;99.90
18291;DHT22;9271;48.590;8.866;2023-08-06T11:52:58;17.80;99.90
18291;DHT22;9271;48.590;8.866;2023-08-06T11:55:26;18.10;99.90
18291;DHT22;9271;48.590;8.866;2023-08-06T11:57:54;17.90;99.90
18291;DHT22;9271;48.590;8.866;2023-08-06T12:00:23;17.10;99.90
18291;DHT22;9271;48.590;8.866;2023-08-06T12:02:51;16.20;99.90
18291;DHT22;9271;48.590;8.866;2023-08-06T12:05:19;15.80;99.90
18291;DHT22;9271;48.590;8.866;2023-08-06T12:07:50;15.80;99.90
18291;DHT22;9271;48.590;8.866;2023-08-06T12:10:19;16.10;99.90
18291;DHT22;9271;48.590;8.866;2023-08-06T12:12:46;16.70;99.90
18291;DHT22;9271;48.590;8.866;2023-08-06T12:15:13;16.90;99.90
18291;DHT22;9271;48.590;8.866;2023-08-06T12:17:40;17.40;99.90
18291;DHT22;9271;48.590;8.866;2023-08-06T12:20:08;17.40;99.90
18291;DHT22;9271;48.590;8.866;2023-08-06T12:22:35;16.90;99.90
18291;DHT22;9271;48.590;8.866;2023-08-06T12:25:03;16.70;99.90
18291;DHT22;9271;48.590;8.866;2023-08-06T12:27:34;16.90;99.90
18291;DHT22;9271;48.590;8.866;2023-08-06T12:30:01;17.30;99.90
18291;DHT22;9271;48.590;8.866;2023-08-06T12:32:29;17.20;99.90
18291;DHT22;9271;48.590;8.866;2023-08-06T12:34:56;17.00;99.90
18291;DHT22;9271;48.590;8.866;2023-08-06T12:37:24;17.20;99.90
18291;DHT22;9271;48.590;8.866;2023-08-06T12:39:51;17.20;99.90
18291;DHT22;9271;48.590;8.866;2023-08-06T12:42:18;17.10;99.90
18291;DHT22;9271;48.590;8.866;2023-08-06T12:44:48;17.30;99.90
18291;DHT22;9271;48.590;8.866;2023-08-06T12:47:15;17.40;99.90
18291;DHT22;9271;48.590;8.866;2023-08-06T12:49:42;17.10;99.90
18291;DHT22;9271;48.590;8.866;2023-08-06T12:52:09;18.10;99.90
18291;DHT22;9271;48.590;8.866;2023-08-06T12:54:38;18.20;99.90
18291;DHT22;9271;48.590;8.866;2023-08-06T12:57:05;19.30;99.90
18291;DHT22;9271;48.590;8.866;2023-08-06T12:59:32;20.90;99.90
18291;DHT22;9271;48.590;8.866;2023-08-06T13:02:03;22.30;98.50
18291;DHT22;9271;48.590;8.866;2023-08-06T13:04:29;23.90;97.00
18291;DHT22;9271;48.590;8.866;2023-08-06T13:06:56;25.10;94.90
18291;DHT22;9271;48.590;8.866;2023-08-06T13:09:23;24.50;94.20
18291;DHT22;9271;48.590;8.866;2023-08-06T13:11:50;23.80;93.80
18291;DHT22;9271;48.590;8.866;2023-08-06T13:14:17;21.60;95.10
18291;DHT22;9271;48.590;8.866;2023-08-06T13:16:44;21.10;97.60
18291;DHT22;9271;48.590;8.866;2023-08-06T13:19:12;20.30;97.70
18291;DHT22;9271;48.590;8.866;2023-08-06T13:21:59;21.00;97.90
18291;DHT22;9271;48.590;8.866;2023-08-06T13:24:27;20.10;98.00
18291;DHT22;9271;48.590;8.866;2023-08-06T13:26:54;18.70;99.90
18291;DHT22;9271;48.590;8.866;2023-08-06T13:29:21;19.40;99.90
18291;DHT22;9271;48.590;8.866;2023-08-06T13:31:47;19.50;99.90
18291;DHT22;9271;48.590;8.866;2023-08-06T13:34:16;19.20;99.90
18291;DHT22;9271;48.590;8.866;2023-08-06T13:36:43;19.20;99.90
18291;DHT22;9271;48.590;8.866;2023-08-06T13:39:10;19.70;99.60
18291;DHT22;9271;48.590;8.866;2023-08-06T13:41:37;19.70;99.70
18291;DHT22;9271;48.590;8.866;2023-08-06T13:44:04;20.40;98.40
18291;DHT22;9271;48.590;8.866;2023-08-06T13:46:32;21.70;98.70
18291;DHT22;9271;48.590;8.866;2023-08-06T13:48:59;23.50;93.40
18291;DHT22;9271;48.590;8.866;2023-08-06T13:51:27;23.60;92.30
18291;DHT22;9271;48.590;8.866;2023-08-06T13:53:54;23.50;92.90
18291;DHT22;9271;48.590;8.866;2023-08-06T13:56:22;23.50;92.20
18291;DHT22;9271;48.590;8.866;2023-08-06T13:58:49;23.60;92.60
18291;DHT22;9271;48.590;8.866;2023-08-06T14:01:17;23.50;93.30
18291;DHT22;9271;48.590;8.866;2023-08-06T14:03:44;23.10;92.80
18291;DHT22;9271;48.590;8.866;2023-08-06T14:06:11;23.30;94.10
18291;DHT22;9271;48.590;8.866;2023-08-06T14:08:39;22.90;93.30
18291;DHT22;9271;48.590;8.866;2023-08-06T14:11:06;22.30;93.90
18291;DHT22;9271;48.590;8.866;2023-08-06T14:13:32;20.00;95.80
18291;DHT22;9271;48.590;8.866;2023-08-06T14:15:59;19.30;98.20
18291;DHT22;9271;48.590;8.866;2023-08-06T14:18:26;19.10;97.80
18291;DHT22;9271;48.590;8.866;2023-08-06T14:20:53;18.70;99.00
18291;DHT22;9271;48.590;8.866;2023-08-06T14:23:19;18.60;99.90
18291;DHT22;9271;48.590;8.866;2023-08-06T14:25:47;18.20;99.90
18291;DHT22;9271;48.590;8.866;2023-08-06T14:28:14;17.00;99.90
18291;DHT22;9271;48.590;8.866;2023-08-06T14:30:41;16.30;99.90
18291;DHT22;9271;48.590;8.866;2023-08-06T14:33:08;15.60;99.90
18291;DHT22;9271;48.590;8.866;2023-08-06T14:35:34;15.50;99.90
18291;DHT22;9271;48.590;8.866;2023-08-06T14:38:04;15.30;99.90
18291;DHT22;9271;48.590;8.866;2023-08-06T14:40:30;15.70;99.90
18291;DHT22;9271;48.590;8.866;2023-08-06T14:43:01;16.20;99.90
18291;DHT22;9271;48.590;8.866;2023-08-06T14:45:28;17.00;99.90
18291;DHT22;9271;48.590;8.866;2023-08-06T14:47:55;16.80;99.90
18291;DHT22;9271;48.590;8.866;2023-08-06T14:50:22;16.90;99.90
18291;DHT22;9271;48.590;8.866;2023-08-06T14:52:48;17.10;99.90
18291;DHT22;9271;48.590;8.866;2023-08-06T14:55:23;16.90;99.90
18291;DHT22;9271;48.590;8.866;2023-08-06T14:57:50;17.10;99.90
18291;DHT22;9271;48.590;8.866;2023-08-06T15:00:18;17.60;99.90
18291;DHT22;9271;48.590;8.866;2023-08-06T15:02:46;17.80;99.90
18291;DHT22;9271;48.590;8.866;2023-08-06T15:05:12;18.00;99.90
18291;DHT22;9271;48.590;8.866;2023-08-06T15:07:39;18.30;99.90
18291;DHT22;9271;48.590;8.866;2023-08-06T15:10:07;18.60;99.90
18291;DHT22;9271;48.590;8.866;2023-08-06T15:12:33;18.60;99.90
18291;DHT22;9271;48.590;8.866;2023-08-06T15:15:00;18.30;99.90
18291;DHT22;9271;48.590;8.866;2023-08-06T15:17:29;18.50;99.90
18291;DHT22;9271;48.590;8.866;2023-08-06T15:19:56;19.10;99.90
18291;DHT22;9271;48.590;8.866;2023-08-06T15:22:23;19.70;99.00
18291;DHT22;9271;48.590;8.866;2023-08-06T15:24:50;18.70;99.70
18291;DHT22;9271;48.590;8.866;2023-08-06T15:27:17;19.10;99.90
18291;DHT22;9271;48.590;8.866;2023-08-06T15:29:44;19.80;98.80
18291;DHT22;9271;48.590;8.866;2023-08-06T15:32:10;19.80;98.80
18291;DHT22;9271;48.590;8.866;2023-08-06T15:34:40;20.20;98.10
18291;DHT22;9271;48.590;8.866;2023-08-06T15:37:07;20.10;97.90
18291;DHT22;9271;48.590;8.866;2023-08-06T15:39:36;20.40;98.00
18291;DHT22;9271;48.590;8.866;2023-08-06T15:42:03;21.00;97.60
18291;DHT22;9271;48.590;8.866;2023-08-06T15:44:30;21.00;96.50
18291;DHT22;9271;48.590;8.866;2023-08-06T15:46:57;20.50;96.30